sensor_id;sensor_type;location;lat;lon;timestamp;temperature;humidity
306;DHT22;137;48.578;9.180;2024-02-23T00:01:40;5.40;98.20
306;DHT22;137;48.578;9.180;2024-02-23T00:04:07;5.50;98.20
306;DHT22;137;48.578;9.180;2024-02-23T00:06:35;5.50;98.20
306;DHT22;137;48.578;9.180;2024-02-23T00:09:03;5.60;98.20
306;DHT22;137;48.578;9.180;2024-02-23T00:11:30;5.60;98.20
306;DHT22;137;48.578;9.180;2024-02-23T00:13:58;5.60;98.20
306;DHT22;137;48.578;9.180;2024-02-23T00:16:24;5.60;98.20
306;DHT22;137;48.578;9.180;2024-02-23T00:18:51;5.60;98.20
306;DHT22;137;48.578;9.180;2024-02-23T00:21:18;5.60;98.20
306;DHT22;137;48.578;9.180;2024-02-23T00:23:45;5.60;98.20
306;DHT22;137;48.578;9.180;2024-02-23T00:26:13;5.60;98.20
306;DHT22;137;48.578;9.180;2024-02-23T00:28:40;5.60;98.20
306;DHT22;137;48.578;9.180;2024-02-23T00:31:06;5.60;98.20
306;DHT22;137;48.578;9.180;2024-02-23T00:33:33;5.60;98.20
306;DHT22;137;48.578;9.180;2024-02-23T00:36:00;5.60;98.20
306;DHT22;137;48.578;9.180;2024-02-23T00:38:27;5.60;98.20
306;DHT22;137;48.578;9.180;2024-02-23T00:40:53;5.60;98.20
306;DHT22;137;48.578;9.180;2024-02-23T00:43:21;5.60;98.20
306;DHT22;137;48.578;9.180;2024-02-23T00:45:48;5.60;98.20
306;DHT22;137;48.578;9.180;2024-02-23T00:48:15;5.60;98.20
306;DHT22;137;48.578;9.180;2024-02-23T00:50:42;5.60;98.20
306;DHT22;137;48.578;9.180;2024-02-23T00:53:09;5.50;98.20
306;DHT22;137;48.578;9.180;2024-02-23T00:55:36;5.50;98.20
306;DHT22;137;48.578;9.180;2024-02-23T00:58:03;5.50;98.20
306;DHT22;137;48.578;9.180;2024-02-23T01:00:31;5.40;98.20
306;DHT22;137;48.578;9.180;2024-02-23T01:02:58;5.30;98.20
306;DHT22;137;48.578;9.180;2024-02-23T01:05:25;5.30;98.20
306;DHT22;137;48.578;9.180;2024-02-23T01:07:52;5.20;98.20
306;DHT22;137;48.578;9.180;2024-02-23T01:10:19;5.20;98.20
306;DHT22;137;48.578;9.180;2024-02-23T01:12:45;5.20;98.20
306;DHT22;137;48.578;9.180;2024-02-23T01:15:12;5.10;98.20
306;DHT22;137;48.578;9.180;2024-02-23T01:17:40;5.10;98.20
306;DHT22;137;48.578;9.180;2024-02-23T01:20:08;5.00;98.20
306;DHT22;137;48.578;9.180;2024-02-23T01:22:34;4.80;98.20
306;DHT22;137;48.578;9.180;2024-02-23T01:25:01;4.80;98.20
306;DHT22;137;48.578;9.180;2024-02-23T01:27:29;4.60;98.20
306;DHT22;137;48.578;9.180;2024-02-23T01:29:55;4.50;98.20
306;DHT22;137;48.578;9.180;2024-02-23T01:32:22;4.40;98.20
306;DHT22;137;48.578;9.180;2024-02-23T01:34:50;4.30;98.20
306;DHT22;137;48.578;9.180;2024-02-23T01:39:43;4.20;98.20
306;DHT22;137;48.578;9.180;2024-02-23T01:42:10;4.20;98.20
306;DHT22;137;48.578;9.180;2024-02-23T01:44:37;4.20;98.20
306;DHT22;137;48.578;9.180;2024-02-23T01:47:03;4.10;98.20
306;DHT22;137;48.578;9.180;2024-02-23T01:49:30;4.10;98.20
306;DHT22;137;48.578;9.180;2024-02-23T01:52:00;4.10;98.20
306;DHT22;137;48.578;9.180;2024-02-23T01:54:29;4.00;98.20
306;DHT22;137;48.578;9.180;2024-02-23T01:56:57;4.10;98.20
306;DHT22;137;48.578;9.180;2024-02-23T01:59:25;4.00;98.20
306;DHT22;137;48.578;9.180;2024-02-23T02:01:52;4.00;98.20
306;DHT22;137;48.578;9.180;2024-02-23T02:04:19;4.00;98.20
306;DHT22;137;48.578;9.180;2024-02-23T02:06:46;4.00;98.20
306;DHT22;137;48.578;9.180;2024-02-23T02:09:14;4.00;98.20
306;DHT22;137;48.578;9.180;2024-02-23T02:11:45;4.00;98.20
306;DHT22;137;48.578;9.180;2024-02-23T02:14:12;4.00;98.20
306;DHT22;137;48.578;9.180;2024-02-23T02:16:39;4.00;98.20
306;DHT22;137;48.578;9.180;2024-02-23T02:19:06;4.00;98.20
306;DHT22;137;48.578;9.180;2024-02-23T02:21:33;4.00;98.20
306;DHT22;137;48.578;9.180;2024-02-23T02:24:00;4.00;98.20
306;DHT22;137;48.578;9.180;2024-02-23T02:26:28;4.00;98.20
306;DHT22;137;48.578;9.180;2024-02-23T02:28:55;4.00;98.20
306;DHT22;137;48.578;9.180;2024-02-23T02:31:22;4.00;98.20
306;DHT22;137;48.578;9.180;2024-02-23T02:33:48;4.00;98.20
306;DHT22;137;48.578;9.180;2024-02-23T02:36:15;4.00;98.20
306;DHT22;137;48.578;9.180;2024-02-23T02:38:42;4.00;98.20
306;DHT22;137;48.578;9.180;2024-02-23T02:41:09;4.00;98.20
306;DHT22;137;48.578;9.180;2024-02-23T02:43:37;4.10;98.20
306;DHT22;137;48.578;9.180;2024-02-23T02:46:04;4.10;98.20
306;DHT22;137;48.578;9.180;2024-02-23T02:48:30;4.10;98.20
306;DHT22;137;48.578;9.180;2024-02-23T02:50:57;4.10;98.20
306;DHT22;137;48.578;9.180;2024-02-23T02:53:24;4.10;98.20
306;DHT22;137;48.578;9.180;2024-02-23T02:55:50;4.10;98.20
306;DHT22;137;48.578;9.180;2024-02-23T02:58:17;4.10;98.20
306;DHT22;137;48.578;9.180;2024-02-23T03:00:45;4.10;98.20
306;DHT22;137;48.578;9.180;2024-02-23T03:03:12;4.10;98.20
306;DHT22;137;48.578;9.180;2024-02-23T03:05:39;4.10;98.20
306;DHT22;137;48.578;9.180;2024-02-23T03:08:06;4.20;98.20
306;DHT22;137;48.578;9.180;2024-02-23T03:10:33;4.20;98.20
306;DHT22;137;48.578;9.180;2024-02-23T03:13:00;4.30;98.20
306;DHT22;137;48.578;9.180;2024-02-23T03:15:26;4.30;98.20
306;DHT22;137;48.578;9.180;2024-02-23T03:17:55;4.40;98.20
306;DHT22;137;48.578;9.180;2024-02-23T03:20:22;4.40;98.20
306;DHT22;137;48.578;9.180;2024-02-23T03:22:49;4.40;98.20
306;DHT22;137;48.578;9.180;2024-02-23T03:25:16;4.50;98.20
306;DHT22;137;48.578;9.180;2024-02-23T03:27:42;4.50;98.20
306;DHT22;137;48.578;9.180;2024-02-23T03:30:10;4.50;98.20
306;DHT22;137;48.578;9.180;2024-02-23T03:32:37;4.50;98.20
306;DHT22;137;48.578;9.180;2024-02-23T03:35:06;4.50;98.20
306;DHT22;137;48.578;9.180;2024-02-23T03:37:33;4.50;98.20
306;DHT22;137;48.578;9.180;2024-02-23T03:40:00;4.50;98.20
306;DHT22;137;48.578;9.180;2024-02-23T03:42:27;4.50;98.20
306;DHT22;137;48.578;9.180;2024-02-23T03:44:54;4.50;98.20
306;DHT22;137;48.578;9.180;2024-02-23T03:47:21;4.50;98.20
306;DHT22;137;48.578;9.180;2024-02-23T03:49:48;4.60;98.20
306;DHT22;137;48.578;9.180;2024-02-23T03:52:16;4.60;98.20
306;DHT22;137;48.578;9.180;2024-02-23T03:54:42;4.60;98.20
306;DHT22;137;48.578;9.180;2024-02-23T03:57:09;4.60;98.20
306;DHT22;137;48.578;9.180;2024-02-23T03:59:36;4.60;98.20
306;DHT22;137;48.578;9.180;2024-02-23T04:02:04;4.50;98.20
306;DHT22;137;48.578;9.180;2024-02-23T04:04:31;4.50;98.20
306;DHT22;137;48.578;9.180;2024-02-23T04:06:57;4.50;98.20
306;DHT22;137;48.578;9.180;2024-02-23T04:09:26;4.50;98.20
306;DHT22;137;48.578;9.180;2024-02-23T04:11:52;4.50;98.20
306;DHT22;137;48.578;9.180;2024-02-23T04:14:19;4.50;98.20
306;DHT22;137;48.578;9.180;2024-02-23T04:16:46;4.50;98.20
306;DHT22;137;48.578;9.180;2024-02-23T04:19:12;4.50;98.20
306;DHT22;137;48.578;9.180;2024-02-23T04:21:39;4.40;98.20
306;DHT22;137;48.578;9.180;2024-02-23T04:24:06;4.40;98.20
306;DHT22;137;48.578;9.180;2024-02-23T04:26:35;4.40;98.20
306;DHT22;137;48.578;9.180;2024-02-23T04:29:02;4.40;98.20
306;DHT22;137;48.578;9.180;2024-02-23T04:31:28;4.40;98.20
306;DHT22;137;48.578;9.180;2024-02-23T04:33:55;4.30;98.20
306;DHT22;137;48.578;9.180;2024-02-23T04:36:22;4.30;98.20
306;DHT22;137;48.578;9.180;2024-02-23T04:38:49;4.30;98.20
306;DHT22;137;48.578;9.180;2024-02-23T04:41:19;4.20;98.20
306;DHT22;137;48.578;9.180;2024-02-23T04:43:48;4.20;98.20
306;DHT22;137;48.578;9.180;2024-02-23T04:46:15;4.20;98.20
306;DHT22;137;48.578;9.180;2024-02-23T04:48:42;4.10;98.20
306;DHT22;137;48.578;9.180;2024-02-23T04:51:09;4.00;98.20
306;DHT22;137;48.578;9.180;2024-02-23T04:53:36;4.00;98.20
306;DHT22;137;48.578;9.180;2024-02-23T04:56:04;4.00;98.20
306;DHT22;137;48.578;9.180;2024-02-23T04:58:31;4.00;98.20
306;DHT22;137;48.578;9.180;2024-02-23T05:00:59;4.00;98.20
306;DHT22;137;48.578;9.180;2024-02-23T05:03:26;4.00;98.20
306;DHT22;137;48.578;9.180;2024-02-23T05:05:53;4.00;98.20
306;DHT22;137;48.578;9.180;2024-02-23T05:08:20;4.00;98.20
306;DHT22;137;48.578;9.180;2024-02-23T05:10:49;3.90;98.20
306;DHT22;137;48.578;9.180;2024-02-23T05:13:17;3.90;98.20
306;DHT22;137;48.578;9.180;2024-02-23T05:15:44;4.00;98.20
306;DHT22;137;48.578;9.180;2024-02-23T05:18:12;3.90;98.20
306;DHT22;137;48.578;9.180;2024-02-23T05:20:43;4.00;98.20
306;DHT22;137;48.578;9.180;2024-02-23T05:23:13;4.00;98.20
306;DHT22;137;48.578;9.180;2024-02-23T05:25:45;3.90;98.20
306;DHT22;137;48.578;9.180;2024-02-23T05:28:12;3.90;98.20
306;DHT22;137;48.578;9.180;2024-02-23T05:30:39;3.90;98.20
306;DHT22;137;48.578;9.180;2024-02-23T05:33:07;3.80;98.20
306;DHT22;137;48.578;9.180;2024-02-23T05:35:35;3.90;98.20
306;DHT22;137;48.578;9.180;2024-02-23T05:38:03;3.90;98.20
306;DHT22;137;48.578;9.180;2024-02-23T05:40:31;3.80;98.20
306;DHT22;137;48.578;9.180;2024-02-23T05:42:58;3.80;98.20
306;DHT22;137;48.578;9.180;2024-02-23T05:45:25;3.80;98.20
306;DHT22;137;48.578;9.180;2024-02-23T05:47:52;3.80;98.20
306;DHT22;137;48.578;9.180;2024-02-23T05:50:19;3.80;98.20
306;DHT22;137;48.578;9.180;2024-02-23T05:52:48;3.80;98.20
306;DHT22;137;48.578;9.180;2024-02-23T05:55:15;3.80;98.20
306;DHT22;137;48.578;9.180;2024-02-23T05:57:42;3.80;98.20
306;DHT22;137;48.578;9.180;2024-02-23T06:00:10;3.80;98.20
306;DHT22;137;48.578;9.180;2024-02-23T06:02:37;3.70;98.20
306;DHT22;137;48.578;9.180;2024-02-23T06:05:05;3.70;98.20
306;DHT22;137;48.578;9.180;2024-02-23T06:07:33;3.60;98.20
306;DHT22;137;48.578;9.180;2024-02-23T06:10:04;3.60;98.20
306;DHT22;137;48.578;9.180;2024-02-23T06:12:31;3.60;98.20
306;DHT22;137;48.578;9.180;2024-02-23T06:15:02;3.60;98.20
306;DHT22;137;48.578;9.180;2024-02-23T06:17:29;3.70;98.20
306;DHT22;137;48.578;9.180;2024-02-23T06:19:56;3.70;98.20
306;DHT22;137;48.578;9.180;2024-02-23T06:22:24;3.60;98.20
306;DHT22;137;48.578;9.180;2024-02-23T06:24:51;3.60;98.20
306;DHT22;137;48.578;9.180;2024-02-23T06:27:19;3.60;98.20
306;DHT22;137;48.578;9.180;2024-02-23T06:29:47;3.60;98.20
306;DHT22;137;48.578;9.180;2024-02-23T06:32:14;3.60;98.20
306;DHT22;137;48.578;9.180;2024-02-23T06:34:41;3.50;98.20
306;DHT22;137;48.578;9.180;2024-02-23T06:37:08;3.50;98.20
306;DHT22;137;48.578;9.180;2024-02-23T06:39:35;3.50;98.20
306;DHT22;137;48.578;9.180;2024-02-23T06:42:03;3.60;98.20
306;DHT22;137;48.578;9.180;2024-02-23T06:44:31;3.60;98.20
306;DHT22;137;48.578;9.180;2024-02-23T06:46:58;3.60;98.20
306;DHT22;137;48.578;9.180;2024-02-23T06:49:25;3.60;98.20
306;DHT22;137;48.578;9.180;2024-02-23T06:51:52;3.60;98.20
306;DHT22;137;48.578;9.180;2024-02-23T06:54:19;3.70;98.20
306;DHT22;137;48.578;9.180;2024-02-23T06:56:46;3.60;98.20
306;DHT22;137;48.578;9.180;2024-02-23T06:59:13;3.70;98.20
306;DHT22;137;48.578;9.180;2024-02-23T07:01:49;3.70;98.20
306;DHT22;137;48.578;9.180;2024-02-23T07:04:16;3.70;98.20
306;DHT22;137;48.578;9.180;2024-02-23T07:06:44;3.80;98.20
306;DHT22;137;48.578;9.180;2024-02-23T07:09:10;3.80;98.20
306;DHT22;137;48.578;9.180;2024-02-23T07:11:38;3.80;98.20
306;DHT22;137;48.578;9.180;2024-02-23T07:14:05;3.80;98.20
306;DHT22;137;48.578;9.180;2024-02-23T07:16:31;3.90;98.20
306;DHT22;137;48.578;9.180;2024-02-23T07:19:00;3.90;98.20
306;DHT22;137;48.578;9.180;2024-02-23T07:21:26;3.90;98.20
306;DHT22;137;48.578;9.180;2024-02-23T07:23:53;3.90;98.20
306;DHT22;137;48.578;9.180;2024-02-23T07:26:20;3.90;98.20
306;DHT22;137;48.578;9.180;2024-02-23T07:28:51;4.00;98.20
306;DHT22;137;48.578;9.180;2024-02-23T07:31:25;4.10;98.20
306;DHT22;137;48.578;9.180;2024-02-23T07:33:52;4.20;98.20
306;DHT22;137;48.578;9.180;2024-02-23T07:36:20;4.30;98.20
306;DHT22;137;48.578;9.180;2024-02-23T07:38:47;4.30;98.20
306;DHT22;137;48.578;9.180;2024-02-23T07:41:15;4.40;98.20
306;DHT22;137;48.578;9.180;2024-02-23T07:43:43;4.60;98.20
306;DHT22;137;48.578;9.180;2024-02-23T07:46:10;4.60;98.20
306;DHT22;137;48.578;9.180;2024-02-23T07:48:36;4.70;98.20
306;DHT22;137;48.578;9.180;2024-02-23T07:51:05;4.70;98.20
306;DHT22;137;48.578;9.180;2024-02-23T07:53:34;4.70;98.20
306;DHT22;137;48.578;9.180;2024-02-23T07:56:01;4.70;98.20
306;DHT22;137;48.578;9.180;2024-02-23T07:58:29;4.70;98.20
306;DHT22;137;48.578;9.180;2024-02-23T08:00:55;4.70;98.20
306;DHT22;137;48.578;9.180;2024-02-23T08:03:22;4.70;98.20
306;DHT22;137;48.578;9.180;2024-02-23T08:05:49;4.70;98.20
306;DHT22;137;48.578;9.180;2024-02-23T08:08:16;4.70;98.20
306;DHT22;137;48.578;9.180;2024-02-23T08:10:44;4.70;98.20
306;DHT22;137;48.578;9.180;2024-02-23T08:13:10;4.70;98.20
306;DHT22;137;48.578;9.180;2024-02-23T08:15:37;4.70;98.20
306;DHT22;137;48.578;9.180;2024-02-23T08:18:04;4.70;98.20
306;DHT22;137;48.578;9.180;2024-02-23T08:20:31;4.70;98.20
306;DHT22;137;48.578;9.180;2024-02-23T08:22:58;4.70;98.20
306;DHT22;137;48.578;9.180;2024-02-23T08:25:25;4.80;98.20
306;DHT22;137;48.578;9.180;2024-02-23T08:27:55;4.90;98.20
306;DHT22;137;48.578;9.180;2024-02-23T08:30:23;4.90;98.20
306;DHT22;137;48.578;9.180;2024-02-23T08:32:49;5.00;98.20
306;DHT22;137;48.578;9.180;2024-02-23T08:35:16;5.10;98.20
306;DHT22;137;48.578;9.180;2024-02-23T08:37:43;5.20;98.20
306;DHT22;137;48.578;9.180;2024-02-23T08:40:11;5.20;98.20
306;DHT22;137;48.578;9.180;2024-02-23T08:42:38;5.30;98.20
306;DHT22;137;48.578;9.180;2024-02-23T08:45:07;5.30;98.20
306;DHT22;137;48.578;9.180;2024-02-23T08:47:35;5.40;98.20
306;DHT22;137;48.578;9.180;2024-02-23T08:50:02;5.40;98.20
306;DHT22;137;48.578;9.180;2024-02-23T08:52:30;5.50;98.20
306;DHT22;137;48.578;9.180;2024-02-23T08:54:56;5.50;98.20
306;DHT22;137;48.578;9.180;2024-02-23T08:57:23;5.60;98.20
306;DHT22;137;48.578;9.180;2024-02-23T08:59:50;5.70;98.20
306;DHT22;137;48.578;9.180;2024-02-23T09:02:18;5.70;98.20
306;DHT22;137;48.578;9.180;2024-02-23T09:04:45;5.70;98.20
306;DHT22;137;48.578;9.180;2024-02-23T09:07:12;5.80;98.20
306;DHT22;137;48.578;9.180;2024-02-23T09:09:39;5.90;98.20
306;DHT22;137;48.578;9.180;2024-02-23T09:12:06;5.90;98.20
306;DHT22;137;48.578;9.180;2024-02-23T09:14:36;6.00;98.20
306;DHT22;137;48.578;9.180;2024-02-23T09:17:03;6.00;98.20
306;DHT22;137;48.578;9.180;2024-02-23T09:19:32;6.10;98.20
306;DHT22;137;48.578;9.180;2024-02-23T09:21:59;6.10;98.20
306;DHT22;137;48.578;9.180;2024-02-23T09:24:27;6.20;98.20
306;DHT22;137;48.578;9.180;2024-02-23T09:26:54;6.30;98.20
306;DHT22;137;48.578;9.180;2024-02-23T09:29:21;6.50;98.20
306;DHT22;137;48.578;9.180;2024-02-23T09:31:48;6.60;98.20
306;DHT22;137;48.578;9.180;2024-02-23T09:34:14;6.60;98.20
306;DHT22;137;48.578;9.180;2024-02-23T09:36:43;6.60;98.20
306;DHT22;137;48.578;9.180;2024-02-23T09:39:09;6.60;98.20
306;DHT22;137;48.578;9.180;2024-02-23T09:41:37;6.60;98.20
306;DHT22;137;48.578;9.180;2024-02-23T09:44:05;6.70;98.20
306;DHT22;137;48.578;9.180;2024-02-23T09:46:36;6.90;98.20
306;DHT22;137;48.578;9.180;2024-02-23T09:49:03;7.10;98.20
306;DHT22;137;48.578;9.180;2024-02-23T09:51:32;7.10;98.20
306;DHT22;137;48.578;9.180;2024-02-23T09:54:02;7.10;98.20
306;DHT22;137;48.578;9.180;2024-02-23T09:56:29;7.10;98.20
306;DHT22;137;48.578;9.180;2024-02-23T09:58:58;7.20;98.20
306;DHT22;137;48.578;9.180;2024-02-23T10:01:28;7.20;98.20
306;DHT22;137;48.578;9.180;2024-02-23T10:03:57;7.30;98.20
306;DHT22;137;48.578;9.180;2024-02-23T10:06:24;7.30;98.20
306;DHT22;137;48.578;9.180;2024-02-23T10:08:51;7.40;98.20
306;DHT22;137;48.578;9.180;2024-02-23T10:11:21;7.40;98.20
306;DHT22;137;48.578;9.180;2024-02-23T10:13:48;7.40;98.20
306;DHT22;137;48.578;9.180;2024-02-23T10:16:16;7.50;98.20
306;DHT22;137;48.578;9.180;2024-02-23T10:18:42;7.60;98.20
306;DHT22;137;48.578;9.180;2024-02-23T10:21:09;7.60;98.20
306;DHT22;137;48.578;9.180;2024-02-23T10:23:37;7.60;98.20
306;DHT22;137;48.578;9.180;2024-02-23T10:26:04;7.60;98.20
306;DHT22;137;48.578;9.180;2024-02-23T10:28:33;7.80;98.20
306;DHT22;137;48.578;9.180;2024-02-23T10:31:00;7.70;98.20
306;DHT22;137;48.578;9.180;2024-02-23T10:33:27;7.80;98.20
306;DHT22;137;48.578;9.180;2024-02-23T10:35:56;7.90;98.20
306;DHT22;137;48.578;9.180;2024-02-23T10:38:23;8.00;98.20
306;DHT22;137;48.578;9.180;2024-02-23T10:40:55;8.10;98.20
306;DHT22;137;48.578;9.180;2024-02-23T10:43:25;8.10;98.20
306;DHT22;137;48.578;9.180;2024-02-23T10:45:57;8.10;98.20
306;DHT22;137;48.578;9.180;2024-02-23T10:48:28;8.00;98.20
306;DHT22;137;48.578;9.180;2024-02-23T10:50:55;8.10;98.20
306;DHT22;137;48.578;9.180;2024-02-23T10:53:24;8.20;98.20
306;DHT22;137;48.578;9.180;2024-02-23T10:55:53;8.40;98.20
306;DHT22;137;48.578;9.180;2024-02-23T10:58:22;8.60;98.20
306;DHT22;137;48.578;9.180;2024-02-23T11:00:49;8.70;98.20
306;DHT22;137;48.578;9.180;2024-02-23T11:03:18;8.70;98.20
306;DHT22;137;48.578;9.180;2024-02-23T11:05:47;8.70;98.20
306;DHT22;137;48.578;9.180;2024-02-23T11:08:17;8.80;98.20
306;DHT22;137;48.578;9.180;2024-02-23T11:10:51;8.90;98.20
306;DHT22;137;48.578;9.180;2024-02-23T11:13:30;9.00;98.20
306;DHT22;137;48.578;9.180;2024-02-23T11:16:01;9.00;98.20
306;DHT22;137;48.578;9.180;2024-02-23T11:18:30;8.90;98.20
306;DHT22;137;48.578;9.180;2024-02-23T11:20:59;8.90;98.20
306;DHT22;137;48.578;9.180;2024-02-23T11:23:27;8.80;98.20
306;DHT22;137;48.578;9.180;2024-02-23T11:26:04;8.80;98.20
306;DHT22;137;48.578;9.180;2024-02-23T11:28:32;8.70;98.20
306;DHT22;137;48.578;9.180;2024-02-23T11:30:58;8.80;98.20
306;DHT22;137;48.578;9.180;2024-02-23T11:33:29;8.70;98.20
306;DHT22;137;48.578;9.180;2024-02-23T11:36:07;8.90;98.20
306;DHT22;137;48.578;9.180;2024-02-23T11:38:34;9.20;98.20
306;DHT22;137;48.578;9.180;2024-02-23T11:41:02;9.20;98.20
306;DHT22;137;48.578;9.180;2024-02-23T11:43:29;9.10;98.20
306;DHT22;137;48.578;9.180;2024-02-23T11:45:56;9.00;98.20
306;DHT22;137;48.578;9.180;2024-02-23T11:48:23;9.20;98.20
306;DHT22;137;48.578;9.180;2024-02-23T11:50:51;9.30;98.20
306;DHT22;137;48.578;9.180;2024-02-23T11:53:18;9.40;98.20
306;DHT22;137;48.578;9.180;2024-02-23T11:55:47;9.50;98.20
306;DHT22;137;48.578;9.180;2024-02-23T11:58:15;9.50;98.20
306;DHT22;137;48.578;9.180;2024-02-23T12:00:42;9.50;98.20
306;DHT22;137;48.578;9.180;2024-02-23T12:03:09;9.30;98.20
306;DHT22;137;48.578;9.180;2024-02-23T12:05:36;9.30;98.20
306;DHT22;137;48.578;9.180;2024-02-23T12:08:05;9.50;98.20
306;DHT22;137;48.578;9.180;2024-02-23T12:10:32;9.50;98.20
306;DHT22;137;48.578;9.180;2024-02-23T12:12:59;9.50;98.20
306;DHT22;137;48.578;9.180;2024-02-23T12:15:26;9.40;98.20
306;DHT22;137;48.578;9.180;2024-02-23T12:17:54;9.30;98.20
306;DHT22;137;48.578;9.180;2024-02-23T12:20:24;9.10;98.20
306;DHT22;137;48.578;9.180;2024-02-23T12:22:51;9.20;98.20
306;DHT22;137;48.578;9.180;2024-02-23T12:25:22;9.00;98.20
306;DHT22;137;48.578;9.180;2024-02-23T12:27:54;9.00;98.20
306;DHT22;137;48.578;9.180;2024-02-23T12:30:21;8.90;98.20
306;DHT22;137;48.578;9.180;2024-02-23T12:32:48;8.80;98.20
306;DHT22;137;48.578;9.180;2024-02-23T12:35:15;8.90;98.20
306;DHT22;137;48.578;9.180;2024-02-23T12:37:43;9.00;98.20
306;DHT22;137;48.578;9.180;2024-02-23T12:40:11;9.10;98.20
306;DHT22;137;48.578;9.180;2024-02-23T12:42:39;9.10;98.20
306;DHT22;137;48.578;9.180;2024-02-23T12:45:07;9.20;98.20
306;DHT22;137;48.578;9.180;2024-02-23T12:47:33;9.30;98.20
306;DHT22;137;48.578;9.180;2024-02-23T12:50:00;9.60;98.20
306;DHT22;137;48.578;9.180;2024-02-23T12:52:27;9.70;98.20
306;DHT22;137;48.578;9.180;2024-02-23T12:54:54;9.80;98.20
306;DHT22;137;48.578;9.180;2024-02-23T12:57:20;9.60;98.20
306;DHT22;137;48.578;9.180;2024-02-23T12:59:48;9.40;98.20
306;DHT22;137;48.578;9.180;2024-02-23T13:02:15;9.60;98.20
306;DHT22;137;48.578;9.180;2024-02-23T13:04:42;9.70;98.20
306;DHT22;137;48.578;9.180;2024-02-23T13:07:14;9.90;98.20
306;DHT22;137;48.578;9.180;2024-02-23T13:09:40;10.00;98.20
306;DHT22;137;48.578;9.180;2024-02-23T13:12:08;9.90;98.20
306;DHT22;137;48.578;9.180;2024-02-23T13:14:35;9.90;98.20
306;DHT22;137;48.578;9.180;2024-02-23T13:17:03;9.80;98.20
306;DHT22;137;48.578;9.180;2024-02-23T13:19:30;9.80;98.20
306;DHT22;137;48.578;9.180;2024-02-23T13:21:56;9.70;98.20
306;DHT22;137;48.578;9.180;2024-02-23T13:24:25;9.60;98.20
306;DHT22;137;48.578;9.180;2024-02-23T13:26:52;9.60;98.20
306;DHT22;137;48.578;9.180;2024-02-23T13:29:19;9.60;98.20
306;DHT22;137;48.578;9.180;2024-02-23T13:31:46;9.50;98.20
306;DHT22;137;48.578;9.180;2024-02-23T13:34:14;9.60;98.20
306;DHT22;137;48.578;9.180;2024-02-23T13:36:42;9.70;98.20
306;DHT22;137;48.578;9.180;2024-02-23T13:39:09;9.50;98.20
306;DHT22;137;48.578;9.180;2024-02-23T13:41:35;9.40;98.20
306;DHT22;137;48.578;9.180;2024-02-23T13:44:03;9.50;98.20
306;DHT22;137;48.578;9.180;2024-02-23T13:46:30;9.50;98.20
306;DHT22;137;48.578;9.180;2024-02-23T13:49:04;9.50;98.20
306;DHT22;137;48.578;9.180;2024-02-23T13:51:33;9.80;98.20
306;DHT22;137;48.578;9.180;2024-02-23T13:54:00;10.00;98.20
306;DHT22;137;48.578;9.180;2024-02-23T13:56:27;10.10;98.20
306;DHT22;137;48.578;9.180;2024-02-23T13:58:53;10.20;98.20
306;DHT22;137;48.578;9.180;2024-02-23T14:01:20;10.10;98.20
306;DHT22;137;48.578;9.180;2024-02-23T14:03:47;9.90;98.20
306;DHT22;137;48.578;9.180;2024-02-23T14:06:14;10.00;98.20
306;DHT22;137;48.578;9.180;2024-02-23T14:08:42;9.90;98.20
306;DHT22;137;48.578;9.180;2024-02-23T14:11:09;9.80;98.20
306;DHT22;137;48.578;9.180;2024-02-23T14:13:36;9.90;98.20
306;DHT22;137;48.578;9.180;2024-02-23T14:16:04;10.20;98.20
306;DHT22;137;48.578;9.180;2024-02-23T14:18:30;10.30;98.20
306;DHT22;137;48.578;9.180;2024-02-23T14:21:02;10.40;98.20
306;DHT22;137;48.578;9.180;2024-02-23T14:23:28;10.50;98.20
306;DHT22;137;48.578;9.180;2024-02-23T14:25:57;10.50;98.20
306;DHT22;137;48.578;9.180;2024-02-23T14:28:23;10.50;98.20
306;DHT22;137;48.578;9.180;2024-02-23T14:30:50;10.30;98.20
306;DHT22;137;48.578;9.180;2024-02-23T14:33:18;10.30;98.20
306;DHT22;137;48.578;9.180;2024-02-23T14:35:45;10.30;98.20
306;DHT22;137;48.578;9.180;2024-02-23T14:38:12;10.20;98.20
306;DHT22;137;48.578;9.180;2024-02-23T14:40:39;10.20;98.20
306;DHT22;137;48.578;9.180;2024-02-23T14:43:07;10.10;98.20
306;DHT22;137;48.578;9.180;2024-02-23T14:45:35;10.00;98.20
306;DHT22;137;48.578;9.180;2024-02-23T14:48:02;9.80;98.20
306;DHT22;137;48.578;9.180;2024-02-23T14:50:29;9.70;98.20
306;DHT22;137;48.578;9.180;2024-02-23T14:52:55;9.60;98.20
306;DHT22;137;48.578;9.180;2024-02-23T14:55:22;9.90;98.20
306;DHT22;137;48.578;9.180;2024-02-23T14:57:49;10.00;98.20
306;DHT22;137;48.578;9.180;2024-02-23T15:00:18;10.20;98.20
306;DHT22;137;48.578;9.180;2024-02-23T15:02:45;10.30;98.20
306;DHT22;137;48.578;9.180;2024-02-23T15:05:12;10.20;98.20
306;DHT22;137;48.578;9.180;2024-02-23T15:07:38;10.00;98.20
306;DHT22;137;48.578;9.180;2024-02-23T15:10:06;9.90;98.20
306;DHT22;137;48.578;9.180;2024-02-23T15:12:34;9.90;98.20
306;DHT22;137;48.578;9.180;2024-02-23T15:15:01;9.80;98.20
306;DHT22;137;48.578;9.180;2024-02-23T15:17:31;9.80;98.20
306;DHT22;137;48.578;9.180;2024-02-23T15:19:57;9.80;98.20
306;DHT22;137;48.578;9.180;2024-02-23T15:22:24;9.70;98.20
306;DHT22;137;48.578;9.180;2024-02-23T15:24:51;9.50;98.20
306;DHT22;137;48.578;9.180;2024-02-23T15:27:18;9.40;98.20
306;DHT22;137;48.578;9.180;2024-02-23T15:29:45;9.50;98.20
306;DHT22;137;48.578;9.180;2024-02-23T15:32:13;9.50;98.20
306;DHT22;137;48.578;9.180;2024-02-23T15:34:41;9.30;98.20
306;DHT22;137;48.578;9.180;2024-02-23T15:37:08;9.30;98.20
306;DHT22;137;48.578;9.180;2024-02-23T15:39:42;9.20;98.20
306;DHT22;137;48.578;9.180;2024-02-23T15:42:10;9.20;98.20
306;DHT22;137;48.578;9.180;2024-02-23T15:44:38;9.20;98.20
306;DHT22;137;48.578;9.180;2024-02-23T15:47:05;9.10;98.20
306;DHT22;137;48.578;9.180;2024-02-23T15:49:32;9.10;98.20
306;DHT22;137;48.578;9.180;2024-02-23T15:52:01;9.00;98.20
306;DHT22;137;48.578;9.180;2024-02-23T15:54:28;9.00;98.20
306;DHT22;137;48.578;9.180;2024-02-23T15:56:55;8.90;98.20
306;DHT22;137;48.578;9.180;2024-02-23T15:59:22;8.80;98.20
306;DHT22;137;48.578;9.180;2024-02-23T16:01:49;8.70;98.20
306;DHT22;137;48.578;9.180;2024-02-23T16:04:16;8.60;98.20
306;DHT22;137;48.578;9.180;2024-02-23T16:06:43;8.60;98.20
306;DHT22;137;48.578;9.180;2024-02-23T16:09:11;8.60;98.20
306;DHT22;137;48.578;9.180;2024-02-23T16:11:44;8.60;98.20
306;DHT22;137;48.578;9.180;2024-02-23T16:14:11;8.60;98.20
306;DHT22;137;48.578;9.180;2024-02-23T16:16:38;8.70;98.20
306;DHT22;137;48.578;9.180;2024-02-23T16:19:06;8.60;98.20
306;DHT22;137;48.578;9.180;2024-02-23T16:21:34;8.50;98.20
306;DHT22;137;48.578;9.180;2024-02-23T16:24:03;8.40;98.20
306;DHT22;137;48.578;9.180;2024-02-23T16:26:32;8.30;98.20
306;DHT22;137;48.578;9.180;2024-02-23T16:29:01;8.20;98.20
306;DHT22;137;48.578;9.180;2024-02-23T16:31:28;8.10;98.20
306;DHT22;137;48.578;9.180;2024-02-23T16:33:54;8.10;98.20
306;DHT22;137;48.578;9.180;2024-02-23T16:36:21;8.10;98.20
306;DHT22;137;48.578;9.180;2024-02-23T16:38:48;8.00;98.20
306;DHT22;137;48.578;9.180;2024-02-23T16:41:15;7.90;98.20
306;DHT22;137;48.578;9.180;2024-02-23T16:43:43;7.90;98.20
306;DHT22;137;48.578;9.180;2024-02-23T16:46:10;7.90;98.20
306;DHT22;137;48.578;9.180;2024-02-23T16:48:36;7.80;98.20
306;DHT22;137;48.578;9.180;2024-02-23T16:51:03;7.80;98.20
306;DHT22;137;48.578;9.180;2024-02-23T16:53:31;7.80;98.20
306;DHT22;137;48.578;9.180;2024-02-23T16:55:57;7.70;98.20